sensor_id;sensor_type;location;lat;lon;timestamp;P1;durP1;ratioP1;P2;durP2;ratioP2
59442;SDS011;45247;47.466;19.004;2023-10-09T00:00:14;4.47;;;1.90;;
59442;SDS011;45247;47.466;19.004;2023-10-09T00:03:17;4.75;;;2.08;;
59442;SDS011;45247;47.466;19.004;2023-10-09T00:05:47;6.00;;;1.85;;
59442;SDS011;45247;47.466;19.004;2023-10-09T00:08:19;3.92;;;1.80;;
59442;SDS011;45247;47.466;19.004;2023-10-09T00:10:53;4.53;;;1.73;;
59442;SDS011;45247;47.466;19.004;2023-10-09T00:13:22;5.80;;;2.20;;
59442;SDS011;45247;47.466;19.004;2023-10-09T00:15:57;3.80;;;1.98;;
59442;SDS011;45247;47.466;19.004;2023-10-09T00:18:35;5.85;;;1.90;;
59442;SDS011;45247;47.466;19.004;2023-10-09T00:21:04;3.40;;;1.50;;
59442;SDS011;45247;47.466;19.004;2023-10-09T00:23:39;3.63;;;1.88;;
59442;SDS011;45247;47.466;19.004;2023-10-09T00:26:08;4.72;;;2.33;;
59442;SDS011;45247;47.466;19.004;2023-10-09T00:28:37;7.20;;;2.28;;
59442;SDS011;45247;47.466;19.004;2023-10-09T00:31:08;6.05;;;2.22;;
59442;SDS011;45247;47.466;19.004;2023-10-09T00:33:41;4.07;;;1.90;;
59442;SDS011;45247;47.466;19.004;2023-10-09T00:36:12;3.92;;;1.83;;
59442;SDS011;45247;47.466;19.004;2023-10-09T00:38:46;2.80;;;1.60;;
59442;SDS011;45247;47.466;19.004;2023-10-09T00:41:20;3.53;;;1.80;;
59442;SDS011;45247;47.466;19.004;2023-10-09T00:43:48;5.18;;;1.98;;
59442;SDS011;45247;47.466;19.004;2023-10-09T00:46:18;4.15;;;1.80;;
59442;SDS011;45247;47.466;19.004;2023-10-09T00:48:57;3.33;;;1.80;;
59442;SDS011;45247;47.466;19.004;2023-10-09T00:51:30;3.60;;;2.13;;
59442;SDS011;45247;47.466;19.004;2023-10-09T00:54:04;3.70;;;1.67;;
59442;SDS011;45247;47.466;19.004;2023-10-09T00:56:41;4.20;;;1.80;;
59442;SDS011;45247;47.466;19.004;2023-10-09T00:59:17;4.78;;;2.05;;
59442;SDS011;45247;47.466;19.004;2023-10-09T01:01:48;4.72;;;2.17;;
59442;SDS011;45247;47.466;19.004;2023-10-09T01:04:24;3.83;;;1.58;;
59442;SDS011;45247;47.466;19.004;2023-10-09T01:06:56;4.53;;;2.05;;
59442;SDS011;45247;47.466;19.004;2023-10-09T01:09:41;4.35;;;1.65;;
59442;SDS011;45247;47.466;19.004;2023-10-09T01:12:11;8.15;;;2.08;;
59442;SDS011;45247;47.466;19.004;2023-10-09T01:14:44;7.65;;;1.90;;
59442;SDS011;45247;47.466;19.004;2023-10-09T01:17:19;7.80;;;1.92;;
59442;SDS011;45247;47.466;19.004;2023-10-09T01:20:03;5.13;;;2.67;;
59442;SDS011;45247;47.466;19.004;2023-10-09T01:22:42;5.35;;;2.40;;
59442;SDS011;45247;47.466;19.004;2023-10-09T01:25:12;4.97;;;2.00;;
59442;SDS011;45247;47.466;19.004;2023-10-09T01:27:40;5.25;;;2.38;;
59442;SDS011;45247;47.466;19.004;2023-10-09T01:30:11;4.07;;;2.00;;
59442;SDS011;45247;47.466;19.004;2023-10-09T01:32:41;5.93;;;2.13;;
59442;SDS011;45247;47.466;19.004;2023-10-09T01:35:10;3.47;;;1.90;;
59442;SDS011;45247;47.466;19.004;2023-10-09T01:37:47;3.40;;;1.80;;
59442;SDS011;45247;47.466;19.004;2023-10-09T01:40:19;7.93;;;2.70;;
59442;SDS011;45247;47.466;19.004;2023-10-09T01:42:54;5.85;;;2.22;;
59442;SDS011;45247;47.466;19.004;2023-10-09T01:45:23;13.65;;;2.45;;
59442;SDS011;45247;47.466;19.004;2023-10-09T01:47:54;3.97;;;2.13;;
59442;SDS011;45247;47.466;19.004;2023-10-09T01:50:23;6.38;;;2.22;;
59442;SDS011;45247;47.466;19.004;2023-10-09T01:52:58;6.93;;;2.00;;
59442;SDS011;45247;47.466;19.004;2023-10-09T01:55:29;3.00;;;1.52;;
59442;SDS011;45247;47.466;19.004;2023-10-09T01:58:01;5.18;;;2.08;;
59442;SDS011;45247;47.466;19.004;2023-10-09T02:00:43;5.20;;;2.30;;
59442;SDS011;45247;47.466;19.004;2023-10-09T02:03:16;5.55;;;2.33;;
59442;SDS011;45247;47.466;19.004;2023-10-09T02:05:45;4.60;;;2.05;;
59442;SDS011;45247;47.466;19.004;2023-10-09T02:08:13;3.85;;;1.90;;
59442;SDS011;45247;47.466;19.004;2023-10-09T02:10:44;6.15;;;2.05;;
59442;SDS011;45247;47.466;19.004;2023-10-09T02:13:14;6.30;;;2.35;;
59442;SDS011;45247;47.466;19.004;2023-10-09T02:15:44;5.88;;;2.20;;
59442;SDS011;45247;47.466;19.004;2023-10-09T02:18:25;5.28;;;2.05;;
59442;SDS011;45247;47.466;19.004;2023-10-09T02:21:07;4.30;;;2.13;;
59442;SDS011;45247;47.466;19.004;2023-10-09T02:23:41;5.78;;;1.88;;
59442;SDS011;45247;47.466;19.004;2023-10-09T02:26:18;6.80;;;2.25;;
59442;SDS011;45247;47.466;19.004;2023-10-09T02:28:53;5.80;;;2.15;;
59442;SDS011;45247;47.466;19.004;2023-10-09T02:31:26;3.90;;;1.85;;
59442;SDS011;45247;47.466;19.004;2023-10-09T02:34:03;5.70;;;1.80;;
59442;SDS011;45247;47.466;19.004;2023-10-09T02:36:32;5.07;;;1.92;;
59442;SDS011;45247;47.466;19.004;2023-10-09T02:39:05;5.22;;;2.00;;
59442;SDS011;45247;47.466;19.004;2023-10-09T02:41:35;4.45;;;2.10;;
59442;SDS011;45247;47.466;19.004;2023-10-09T02:44:16;4.70;;;2.10;;
59442;SDS011;45247;47.466;19.004;2023-10-09T02:46:51;4.93;;;1.77;;
59442;SDS011;45247;47.466;19.004;2023-10-09T02:49:24;5.05;;;1.85;;
59442;SDS011;45247;47.466;19.004;2023-10-09T02:51:54;3.15;;;1.75;;
59442;SDS011;45247;47.466;19.004;2023-10-09T02:54:22;3.90;;;1.80;;
59442;SDS011;45247;47.466;19.004;2023-10-09T02:57:03;4.88;;;1.80;;
59442;SDS011;45247;47.466;19.004;2023-10-09T02:59:35;4.18;;;1.60;;
59442;SDS011;45247;47.466;19.004;2023-10-09T03:02:05;7.28;;;2.35;;
59442;SDS011;45247;47.466;19.004;2023-10-09T03:04:33;5.85;;;2.13;;
59442;SDS011;45247;47.466;19.004;2023-10-09T03:07:04;5.28;;;2.08;;
59442;SDS011;45247;47.466;19.004;2023-10-09T03:09:33;5.35;;;2.03;;
59442;SDS011;45247;47.466;19.004;2023-10-09T03:12:03;6.68;;;2.70;;
59442;SDS011;45247;47.466;19.004;2023-10-09T03:14:37;7.10;;;2.45;;
59442;SDS011;45247;47.466;19.004;2023-10-09T03:17:05;5.25;;;2.60;;
59442;SDS011;45247;47.466;19.004;2023-10-09T03:19:39;5.20;;;2.22;;
59442;SDS011;45247;47.466;19.004;2023-10-09T03:22:07;4.97;;;2.15;;
59442;SDS011;45247;47.466;19.004;2023-10-09T03:24:37;6.00;;;2.13;;
59442;SDS011;45247;47.466;19.004;2023-10-09T03:27:09;4.57;;;2.10;;
59442;SDS011;45247;47.466;19.004;2023-10-09T03:29:38;4.90;;;1.95;;
59442;SDS011;45247;47.466;19.004;2023-10-09T03:32:06;4.75;;;2.38;;
59442;SDS011;45247;47.466;19.004;2023-10-09T03:34:35;6.85;;;2.10;;
59442;SDS011;45247;47.466;19.004;2023-10-09T03:37:05;3.38;;;1.70;;
59442;SDS011;45247;47.466;19.004;2023-10-09T03:39:47;6.50;;;2.00;;
59442;SDS011;45247;47.466;19.004;2023-10-09T03:42:23;5.68;;;2.10;;
59442;SDS011;45247;47.466;19.004;2023-10-09T03:44:51;4.15;;;1.95;;
59442;SDS011;45247;47.466;19.004;2023-10-09T03:47:20;3.92;;;2.00;;
59442;SDS011;45247;47.466;19.004;2023-10-09T03:49:51;3.72;;;1.90;;
59442;SDS011;45247;47.466;19.004;2023-10-09T03:52:21;3.83;;;2.10;;
59442;SDS011;45247;47.466;19.004;2023-10-09T03:54:52;4.72;;;2.25;;
59442;SDS011;45247;47.466;19.004;2023-10-09T03:57:23;7.25;;;2.03;;
59442;SDS011;45247;47.466;19.004;2023-10-09T03:59:51;4.68;;;2.08;;
59442;SDS011;45247;47.466;19.004;2023-10-09T04:02:22;5.85;;;2.08;;
59442;SDS011;45247;47.466;19.004;2023-10-09T04:04:51;5.35;;;1.90;;
59442;SDS011;45247;47.466;19.004;2023-10-09T04:07:19;7.43;;;1.85;;
59442;SDS011;45247;47.466;19.004;2023-10-09T04:09:48;9.00;;;1.70;;
59442;SDS011;45247;47.466;19.004;2023-10-09T04:12:30;7.25;;;2.13;;
59442;SDS011;45247;47.466;19.004;2023-10-09T04:15:00;4.80;;;2.03;;
59442;SDS011;45247;47.466;19.004;2023-10-09T04:17:31;3.80;;;1.80;;
59442;SDS011;45247;47.466;19.004;2023-10-09T04:19:59;4.60;;;1.88;;
59442;SDS011;45247;47.466;19.004;2023-10-09T04:22:57;7.93;;;2.00;;
59442;SDS011;45247;47.466;19.004;2023-10-09T04:25:31;5.35;;;2.03;;
59442;SDS011;45247;47.466;19.004;2023-10-09T04:28:10;6.15;;;2.08;;
59442;SDS011;45247;47.466;19.004;2023-10-09T04:30:46;5.63;;;1.80;;
59442;SDS011;45247;47.466;19.004;2023-10-09T04:33:20;4.75;;;2.22;;
59442;SDS011;45247;47.466;19.004;2023-10-09T04:36:09;5.35;;;2.17;;
59442;SDS011;45247;47.466;19.004;2023-10-09T04:38:49;6.20;;;2.60;;
59442;SDS011;45247;47.466;19.004;2023-10-09T04:42:00;3.97;;;2.05;;
59442;SDS011;45247;47.466;19.004;2023-10-09T04:44:44;5.72;;;1.95;;
59442;SDS011;45247;47.466;19.004;2023-10-09T04:47:46;6.32;;;2.40;;
59442;SDS011;45247;47.466;19.004;2023-10-09T04:50:16;8.15;;;1.90;;
59442;SDS011;45247;47.466;19.004;2023-10-09T04:52:58;5.37;;;2.00;;
59442;SDS011;45247;47.466;19.004;2023-10-09T04:55:48;4.22;;;1.92;;
59442;SDS011;45247;47.466;19.004;2023-10-09T04:58:24;3.20;;;1.70;;
59442;SDS011;45247;47.466;19.004;2023-10-09T05:00:54;7.40;;;1.88;;
59442;SDS011;45247;47.466;19.004;2023-10-09T05:03:40;6.72;;;2.42;;
59442;SDS011;45247;47.466;19.004;2023-10-09T05:06:13;5.57;;;1.60;;
59442;SDS011;45247;47.466;19.004;2023-10-09T05:08:48;3.72;;;1.70;;
59442;SDS011;45247;47.466;19.004;2023-10-09T05:11:16;6.85;;;1.80;;
59442;SDS011;45247;47.466;19.004;2023-10-09T05:13:58;7.30;;;2.07;;
59442;SDS011;45247;47.466;19.004;2023-10-09T05:16:40;3.78;;;1.83;;
59442;SDS011;45247;47.466;19.004;2023-10-09T05:19:21;4.22;;;2.05;;
59442;SDS011;45247;47.466;19.004;2023-10-09T05:22:21;3.58;;;1.90;;
59442;SDS011;45247;47.466;19.004;2023-10-09T05:25:03;4.45;;;1.70;;
59442;SDS011;45247;47.466;19.004;2023-10-09T05:27:42;4.72;;;1.67;;
59442;SDS011;45247;47.466;19.004;2023-10-09T05:30:17;3.78;;;1.80;;
59442;SDS011;45247;47.466;19.004;2023-10-09T05:33:00;5.90;;;2.17;;
59442;SDS011;45247;47.466;19.004;2023-10-09T05:35:52;4.13;;;2.08;;
59442;SDS011;45247;47.466;19.004;2023-10-09T05:38:41;3.80;;;1.92;;
59442;SDS011;45247;47.466;19.004;2023-10-09T05:41:13;4.38;;;1.75;;
59442;SDS011;45247;47.466;19.004;2023-10-09T05:44:14;4.60;;;1.80;;
59442;SDS011;45247;47.466;19.004;2023-10-09T05:46:59;7.03;;;2.20;;
59442;SDS011;45247;47.466;19.004;2023-10-09T05:49:42;6.70;;;2.25;;
59442;SDS011;45247;47.466;19.004;2023-10-09T05:52:22;4.03;;;1.90;;
59442;SDS011;45247;47.466;19.004;2023-10-09T05:55:16;3.70;;;1.95;;
59442;SDS011;45247;47.466;19.004;2023-10-09T05:58:01;4.90;;;1.83;;
59442;SDS011;45247;47.466;19.004;2023-10-09T06:00:47;5.07;;;1.48;;
59442;SDS011;45247;47.466;19.004;2023-10-09T06:03:47;6.43;;;1.77;;
59442;SDS011;45247;47.466;19.004;2023-10-09T06:06:23;7.97;;;2.08;;
59442;SDS011;45247;47.466;19.004;2023-10-09T06:09:01;4.18;;;1.70;;
59442;SDS011;45247;47.466;19.004;2023-10-09T06:11:48;3.75;;;1.90;;
59442;SDS011;45247;47.466;19.004;2023-10-09T06:14:22;5.05;;;1.80;;
59442;SDS011;45247;47.466;19.004;2023-10-09T06:17:12;5.63;;;1.77;;
59442;SDS011;45247;47.466;19.004;2023-10-09T06:19:50;3.63;;;2.08;;
59442;SDS011;45247;47.466;19.004;2023-10-09T06:22:27;7.13;;;2.10;;
59442;SDS011;45247;47.466;19.004;2023-10-09T06:25:11;6.72;;;3.50;;
59442;SDS011;45247;47.466;19.004;2023-10-09T06:30:23;3.60;;;1.70;;
59442;SDS011;45247;47.466;19.004;2023-10-09T06:32:53;6.35;;;1.90;;
59442;SDS011;45247;47.466;19.004;2023-10-09T06:35:47;5.90;;;1.92;;
59442;SDS011;45247;47.466;19.004;2023-10-09T06:38:36;6.28;;;1.85;;
59442;SDS011;45247;47.466;19.004;2023-10-09T06:41:18;4.00;;;1.48;;
59442;SDS011;45247;47.466;19.004;2023-10-09T06:44:00;6.43;;;1.83;;
59442;SDS011;45247;47.466;19.004;2023-10-09T06:46:33;3.03;;;1.70;;
59442;SDS011;45247;47.466;19.004;2023-10-09T06:49:11;12.40;;;2.00;;
59442;SDS011;45247;47.466;19.004;2023-10-09T06:51:59;5.03;;;1.90;;
59442;SDS011;45247;47.466;19.004;2023-10-09T06:54:43;3.88;;;1.80;;
59442;SDS011;45247;47.466;19.004;2023-10-09T06:57:17;11.93;;;1.80;;
59442;SDS011;45247;47.466;19.004;2023-10-09T07:02:44;4.55;;;1.55;;
59442;SDS011;45247;47.466;19.004;2023-10-09T07:05:13;5.28;;;2.20;;
59442;SDS011;45247;47.466;19.004;2023-10-09T07:07:44;4.65;;;1.67;;
59442;SDS011;45247;47.466;19.004;2023-10-09T07:10:23;5.28;;;2.03;;
59442;SDS011;45247;47.466;19.004;2023-10-09T07:13:00;8.48;;;1.85;;
59442;SDS011;45247;47.466;19.004;2023-10-09T07:15:32;5.47;;;1.83;;
59442;SDS011;45247;47.466;19.004;2023-10-09T07:18:18;4.50;;;1.90;;
59442;SDS011;45247;47.466;19.004;2023-10-09T07:20:50;3.85;;;1.40;;
59442;SDS011;45247;47.466;19.004;2023-10-09T07:23:35;3.15;;;1.23;;
59442;SDS011;45247;47.466;19.004;2023-10-09T07:26:16;4.75;;;1.70;;
59442;SDS011;45247;47.466;19.004;2023-10-09T07:28:50;8.00;;;1.65;;
59442;SDS011;45247;47.466;19.004;2023-10-09T07:31:27;2.92;;;1.30;;
59442;SDS011;45247;47.466;19.004;2023-10-09T07:34:06;6.47;;;1.60;;
59442;SDS011;45247;47.466;19.004;2023-10-09T07:36:48;4.73;;;1.73;;
59442;SDS011;45247;47.466;19.004;2023-10-09T07:39:23;4.00;;;1.73;;
59442;SDS011;45247;47.466;19.004;2023-10-09T07:42:03;6.13;;;1.90;;
59442;SDS011;45247;47.466;19.004;2023-10-09T07:44:47;5.15;;;1.70;;
59442;SDS011;45247;47.466;19.004;2023-10-09T07:47:20;6.72;;;2.10;;
59442;SDS011;45247;47.466;19.004;2023-10-09T07:50:09;3.88;;;1.55;;
59442;SDS011;45247;47.466;19.004;2023-10-09T07:52:38;3.67;;;1.77;;
59442;SDS011;45247;47.466;19.004;2023-10-09T07:55:11;3.83;;;1.38;;
59442;SDS011;45247;47.466;19.004;2023-10-09T07:57:54;8.38;;;1.63;;
59442;SDS011;45247;47.466;19.004;2023-10-09T08:00:23;3.20;;;1.48;;
59442;SDS011;45247;47.466;19.004;2023-10-09T08:03:33;4.60;;;1.70;;
59442;SDS011;45247;47.466;19.004;2023-10-09T08:06:01;4.22;;;1.50;;
59442;SDS011;45247;47.466;19.004;2023-10-09T08:08:44;6.30;;;1.38;;
59442;SDS011;45247;47.466;19.004;2023-10-09T08:11:32;3.80;;;1.60;;
59442;SDS011;45247;47.466;19.004;2023-10-09T08:14:27;6.88;;;1.85;;
59442;SDS011;45247;47.466;19.004;2023-10-09T08:17:12;5.95;;;2.30;;
59442;SDS011;45247;47.466;19.004;2023-10-09T08:19:42;5.57;;;1.90;;
59442;SDS011;45247;47.466;19.004;2023-10-09T08:22:21;5.38;;;2.10;;
59442;SDS011;45247;47.466;19.004;2023-10-09T08:25:07;4.85;;;1.60;;
59442;SDS011;45247;47.466;19.004;2023-10-09T08:27:53;4.07;;;1.58;;
59442;SDS011;45247;47.466;19.004;2023-10-09T08:30:23;6.25;;;1.80;;
59442;SDS011;45247;47.466;19.004;2023-10-09T08:33:12;5.10;;;1.60;;
59442;SDS011;45247;47.466;19.004;2023-10-09T08:36:00;6.70;;;1.45;;
59442;SDS011;45247;47.466;19.004;2023-10-09T08:38:32;4.05;;;1.60;;
59442;SDS011;45247;47.466;19.004;2023-10-09T08:41:07;5.68;;;1.65;;
59442;SDS011;45247;47.466;19.004;2023-10-09T08:43:46;4.35;;;1.52;;
59442;SDS011;45247;47.466;19.004;2023-10-09T08:46:22;5.47;;;1.38;;
59442;SDS011;45247;47.466;19.004;2023-10-09T08:48:54;4.45;;;1.80;;
59442;SDS011;45247;47.466;19.004;2023-10-09T08:51:23;3.42;;;1.48;;
59442;SDS011;45247;47.466;19.004;2023-10-09T08:53:52;4.72;;;1.60;;
59442;SDS011;45247;47.466;19.004;2023-10-09T08:56:21;6.13;;;1.60;;
59442;SDS011;45247;47.466;19.004;2023-10-09T08:58:50;4.68;;;1.45;;
59442;SDS011;45247;47.466;19.004;2023-10-09T09:01:22;6.55;;;1.83;;
59442;SDS011;45247;47.466;19.004;2023-10-09T09:03:52;7.53;;;1.63;;
59442;SDS011;45247;47.466;19.004;2023-10-09T09:06:22;12.38;;;1.70;;
59442;SDS011;45247;47.466;19.004;2023-10-09T09:08:51;5.15;;;1.52;;
59442;SDS011;45247;47.466;19.004;2023-10-09T09:11:21;4.60;;;1.23;;
59442;SDS011;45247;47.466;19.004;2023-10-09T09:14:00;9.23;;;1.70;;
59442;SDS011;45247;47.466;19.004;2023-10-09T09:16:33;7.18;;;1.33;;
59442;SDS011;45247;47.466;19.004;2023-10-09T09:19:04;3.65;;;1.50;;
59442;SDS011;45247;47.466;19.004;2023-10-09T09:21:48;9.75;;;2.03;;
59442;SDS011;45247;47.466;19.004;2023-10-09T09:24:21;5.35;;;1.30;;
59442;SDS011;45247;47.466;19.004;2023-10-09T09:27:03;2.38;;;1.50;;
59442;SDS011;45247;47.466;19.004;2023-10-09T09:29:45;4.38;;;1.52;;
59442;SDS011;45247;47.466;19.004;2023-10-09T09:32:28;7.90;;;1.45;;
59442;SDS011;45247;47.466;19.004;2023-10-09T09:35:03;6.63;;;1.40;;
59442;SDS011;45247;47.466;19.004;2023-10-09T09:37:32;4.70;;;1.70;;
59442;SDS011;45247;47.466;19.004;2023-10-09T09:40:17;4.70;;;2.45;;
59442;SDS011;45247;47.466;19.004;2023-10-09T09:43:01;6.13;;;1.20;;
59442;SDS011;45247;47.466;19.004;2023-10-09T09:45:34;5.75;;;1.50;;
59442;SDS011;45247;47.466;19.004;2023-10-09T09:48:05;6.30;;;1.85;;
59442;SDS011;45247;47.466;19.004;2023-10-09T09:50:37;4.28;;;1.52;;
59442;SDS011;45247;47.466;19.004;2023-10-09T09:53:10;6.68;;;1.90;;
59442;SDS011;45247;47.466;19.004;2023-10-09T09:55:45;3.90;;;1.50;;
59442;SDS011;45247;47.466;19.004;2023-10-09T09:58:23;6.95;;;1.60;;
59442;SDS011;45247;47.466;19.004;2023-10-09T10:00:59;3.38;;;1.25;;
59442;SDS011;45247;47.466;19.004;2023-10-09T10:03:44;3.28;;;1.50;;
59442;SDS011;45247;47.466;19.004;2023-10-09T10:06:17;5.07;;;1.55;;
59442;SDS011;45247;47.466;19.004;2023-10-09T10:08:47;8.25;;;1.85;;
59442;SDS011;45247;47.466;19.004;2023-10-09T10:14:12;4.63;;;1.80;;
59442;SDS011;45247;47.466;19.004;2023-10-09T10:17:02;5.68;;;2.08;;
59442;SDS011;45247;47.466;19.004;2023-10-09T10:25:44;10.27;;;2.25;;
59442;SDS011;45247;47.466;19.004;2023-10-09T10:28:16;4.43;;;1.80;;
59442;SDS011;45247;47.466;19.004;2023-10-09T10:30:55;6.88;;;1.80;;
59442;SDS011;45247;47.466;19.004;2023-10-09T10:33:27;6.63;;;1.95;;
59442;SDS011;45247;47.466;19.004;2023-10-09T10:36:22;2.80;;;1.40;;
59442;SDS011;45247;47.466;19.004;2023-10-09T10:38:58;4.90;;;1.75;;
59442;SDS011;45247;47.466;19.004;2023-10-09T10:41:31;8.93;;;1.75;;
59442;SDS011;45247;47.466;19.004;2023-10-09T10:44:03;5.67;;;1.70;;
59442;SDS011;45247;47.466;19.004;2023-10-09T10:46:57;2.58;;;1.13;;
59442;SDS011;45247;47.466;19.004;2023-10-09T10:49:25;9.95;;;1.80;;
59442;SDS011;45247;47.466;19.004;2023-10-09T10:52:03;9.50;;;1.90;;
59442;SDS011;45247;47.466;19.004;2023-10-09T10:54:43;6.93;;;1.60;;
59442;SDS011;45247;47.466;19.004;2023-10-09T10:57:35;6.00;;;2.03;;
59442;SDS011;45247;47.466;19.004;2023-10-09T11:00:21;4.68;;;1.70;;
59442;SDS011;45247;47.466;19.004;2023-10-09T11:03:23;6.03;;;1.88;;
59442;SDS011;45247;47.466;19.004;2023-10-09T11:06:02;9.25;;;1.70;;
59442;SDS011;45247;47.466;19.004;2023-10-09T11:08:43;7.57;;;1.80;;
59442;SDS011;45247;47.466;19.004;2023-10-09T11:11:21;2.95;;;1.48;;
59442;SDS011;45247;47.466;19.004;2023-10-09T11:13:50;4.00;;;1.63;;
59442;SDS011;45247;47.466;19.004;2023-10-09T11:16:24;5.50;;;1.77;;
59442;SDS011;45247;47.466;19.004;2023-10-09T11:19:12;4.20;;;1.58;;
59442;SDS011;45247;47.466;19.004;2023-10-09T11:21:50;10.75;;;2.10;;
59442;SDS011;45247;47.466;19.004;2023-10-09T11:24:27;4.93;;;1.77;;
59442;SDS011;45247;47.466;19.004;2023-10-09T11:26:59;7.22;;;2.40;;
59442;SDS011;45247;47.466;19.004;2023-10-09T11:29:32;9.65;;;2.03;;
59442;SDS011;45247;47.466;19.004;2023-10-09T11:32:16;6.28;;;1.77;;
59442;SDS011;45247;47.466;19.004;2023-10-09T11:34:47;6.55;;;1.85;;
59442;SDS011;45247;47.466;19.004;2023-10-09T11:37:19;8.95;;;1.70;;
59442;SDS011;45247;47.466;19.004;2023-10-09T11:42:59;6.28;;;1.95;;
59442;SDS011;45247;47.466;19.004;2023-10-09T11:45:30;5.15;;;2.00;;
59442;SDS011;45247;47.466;19.004;2023-10-09T11:51:01;5.70;;;2.33;;
59442;SDS011;45247;47.466;19.004;2023-10-09T11:53:45;5.10;;;2.00;;
59442;SDS011;45247;47.466;19.004;2023-10-09T11:56:16;12.75;;;3.10;;
59442;SDS011;45247;47.466;19.004;2023-10-09T11:58:46;9.30;;;2.55;;
59442;SDS011;45247;47.466;19.004;2023-10-09T12:01:17;7.88;;;2.00;;
59442;SDS011;45247;47.466;19.004;2023-10-09T12:03:47;7.68;;;1.90;;
59442;SDS011;45247;47.466;19.004;2023-10-09T12:06:19;7.57;;;2.40;;
59442;SDS011;45247;47.466;19.004;2023-10-09T12:08:49;10.03;;;1.97;;
59442;SDS011;45247;47.466;19.004;2023-10-09T12:11:17;6.07;;;1.80;;
59442;SDS011;45247;47.466;19.004;2023-10-09T12:13:50;7.50;;;2.40;;
59442;SDS011;45247;47.466;19.004;2023-10-09T12:18:55;5.30;;;1.95;;
59442;SDS011;45247;47.466;19.004;2023-10-09T12:21:25;10.73;;;2.30;;
59442;SDS011;45247;47.466;19.004;2023-10-09T12:23:55;4.28;;;1.95;;
59442;SDS011;45247;47.466;19.004;2023-10-09T12:26:28;7.57;;;1.92;;
59442;SDS011;45247;47.466;19.004;2023-10-09T12:29:01;7.75;;;1.70;;
59442;SDS011;45247;47.466;19.004;2023-10-09T12:31:38;7.18;;;1.88;;
59442;SDS011;45247;47.466;19.004;2023-10-09T12:34:06;5.22;;;1.90;;
59442;SDS011;45247;47.466;19.004;2023-10-09T12:36:36;5.05;;;1.85;;
59442;SDS011;45247;47.466;19.004;2023-10-09T12:39:04;4.20;;;1.83;;
59442;SDS011;45247;47.466;19.004;2023-10-09T12:41:32;6.18;;;2.20;;
59442;SDS011;45247;47.466;19.004;2023-10-09T12:44:07;5.00;;;1.90;;
59442;SDS011;45247;47.466;19.004;2023-10-09T12:46:42;8.70;;;2.17;;
59442;SDS011;45247;47.466;19.004;2023-10-09T12:49:19;5.93;;;1.77;;
59442;SDS011;45247;47.466;19.004;2023-10-09T12:51:53;6.97;;;2.33;;
59442;SDS011;45247;47.466;19.004;2023-10-09T12:54:24;3.53;;;1.40;;
59442;SDS011;45247;47.466;19.004;2023-10-09T12:56:54;8.38;;;2.38;;
59442;SDS011;45247;47.466;19.004;2023-10-09T12:59:24;5.97;;;2.00;;
59442;SDS011;45247;47.466;19.004;2023-10-09T13:01:52;4.18;;;2.08;;
59442;SDS011;45247;47.466;19.004;2023-10-09T13:04:24;4.00;;;1.75;;
59442;SDS011;45247;47.466;19.004;2023-10-09T13:07:00;7.03;;;2.25;;
59442;SDS011;45247;47.466;19.004;2023-10-09T13:09:31;7.50;;;2.15;;
59442;SDS011;45247;47.466;19.004;2023-10-09T13:12:03;11.20;;;3.35;;
59442;SDS011;45247;47.466;19.004;2023-10-09T13:14:31;7.53;;;2.47;;
59442;SDS011;45247;47.466;19.004;2023-10-09T13:17:00;15.35;;;2.58;;
59442;SDS011;45247;47.466;19.004;2023-10-09T13:19:35;3.90;;;1.73;;
59442;SDS011;45247;47.466;19.004;2023-10-09T13:22:05;6.50;;;1.90;;
59442;SDS011;45247;47.466;19.004;2023-10-09T13:24:40;8.52;;;2.92;;
59442;SDS011;45247;47.466;19.004;2023-10-09T13:27:08;4.75;;;2.30;;
59442;SDS011;45247;47.466;19.004;2023-10-09T13:29:40;5.28;;;2.08;;
59442;SDS011;45247;47.466;19.004;2023-10-09T13:32:08;5.70;;;2.10;;
59442;SDS011;45247;47.466;19.004;2023-10-09T13:34:41;3.30;;;1.85;;
59442;SDS011;45247;47.466;19.004;2023-10-09T13:37:13;5.15;;;2.35;;
59442;SDS011;45247;47.466;19.004;2023-10-09T13:39:46;7.65;;;1.98;;
59442;SDS011;45247;47.466;19.004;2023-10-09T13:42:19;4.82;;;2.30;;
59442;SDS011;45247;47.466;19.004;2023-10-09T13:44:52;5.05;;;2.40;;
59442;SDS011;45247;47.466;19.004;2023-10-09T13:47:21;4.32;;;2.40;;
59442;SDS011;45247;47.466;19.004;2023-10-09T13:49:59;5.47;;;2.85;;
59442;SDS011;45247;47.466;19.004;2023-10-09T13:52:29;7.95;;;3.65;;
59442;SDS011;45247;47.466;19.004;2023-10-09T13:54:58;11.02;;;3.95;;
59442;SDS011;45247;47.466;19.004;2023-10-09T13:57:42;14.38;;;3.38;;
59442;SDS011;45247;47.466;19.004;2023-10-09T14:00:12;7.75;;;3.20;;
59442;SDS011;45247;47.466;19.004;2023-10-09T14:02:44;6.72;;;2.95;;
59442;SDS011;45247;47.466;19.004;2023-10-09T14:05:13;5.38;;;2.72;;
59442;SDS011;45247;47.466;19.004;2023-10-09T14:07:43;9.15;;;3.13;;
59442;SDS011;45247;47.466;19.004;2023-10-09T14:10:11;9.32;;;2.42;;
59442;SDS011;45247;47.466;19.004;2023-10-09T14:12:44;4.68;;;2.42;;
59442;SDS011;45247;47.466;19.004;2023-10-09T14:15:13;11.40;;;2.80;;
59442;SDS011;45247;47.466;19.004;2023-10-09T14:17:44;9.00;;;3.28;;
59442;SDS011;45247;47.466;19.004;2023-10-09T14:20:13;8.13;;;2.63;;
59442;SDS011;45247;47.466;19.004;2023-10-09T14:22:59;7.78;;;2.65;;
59442;SDS011;45247;47.466;19.004;2023-10-09T14:25:34;7.25;;;2.40;;
59442;SDS011;45247;47.466;19.004;2023-10-09T14:28:04;7.32;;;2.78;;
59442;SDS011;45247;47.466;19.004;2023-10-09T14:30:34;9.73;;;2.75;;
59442;SDS011;45247;47.466;19.004;2023-10-09T14:33:08;12.57;;;3.30;;
59442;SDS011;45247;47.466;19.004;2023-10-09T14:35:40;6.15;;;3.15;;
59442;SDS011;45247;47.466;19.004;2023-10-09T14:38:10;10.35;;;3.40;;
59442;SDS011;45247;47.466;19.004;2023-10-09T14:40:42;11.25;;;3.78;;
59442;SDS011;45247;47.466;19.004;2023-10-09T14:43:11;8.07;;;4.68;;
59442;SDS011;45247;47.466;19.004;2023-10-09T14:45:46;9.38;;;4.15;;
59442;SDS011;45247;47.466;19.004;2023-10-09T14:48:16;10.52;;;4.85;;
59442;SDS011;45247;47.466;19.004;2023-10-09T14:50:48;9.88;;;3.90;;
59442;SDS011;45247;47.466;19.004;2023-10-09T14:53:21;6.22;;;3.33;;
59442;SDS011;45247;47.466;19.004;2023-10-09T14:55:54;6.47;;;3.17;;
59442;SDS011;45247;47.466;19.004;2023-10-09T14:58:22;9.48;;;3.78;;
59442;SDS011;45247;47.466;19.004;2023-10-09T15:00:51;11.80;;;4.03;;
59442;SDS011;45247;47.466;19.004;2023-10-09T15:03:20;12.27;;;4.38;;
59442;SDS011;45247;47.466;19.004;2023-10-09T15:05:49;10.13;;;4.07;;
59442;SDS011;45247;47.466;19.004;2023-10-09T15:08:17;13.65;;;4.72;;
59442;SDS011;45247;47.466;19.004;2023-10-09T15:10:47;9.73;;;4.85;;
59442;SDS011;45247;47.466;19.004;2023-10-09T15:13:18;13.68;;;5.35;;
59442;SDS011;45247;47.466;19.004;2023-10-09T15:15:46;13.02;;;5.35;;
59442;SDS011;45247;47.466;19.004;2023-10-09T15:18:18;14.98;;;5.38;;
59442;SDS011;45247;47.466;19.004;2023-10-09T15:20:48;12.63;;;5.63;;
59442;SDS011;45247;47.466;19.004;2023-10-09T15:23:18;12.00;;;5.65;;
59442;SDS011;45247;47.466;19.004;2023-10-09T15:25:50;14.55;;;6.32;;
59442;SDS011;45247;47.466;19.004;2023-10-09T15:28:21;11.52;;;5.55;;
59442;SDS011;45247;47.466;19.004;2023-10-09T15:30:49;16.60;;;7.47;;
59442;SDS011;45247;47.466;19.004;2023-10-09T15:33:18;15.77;;;5.57;;
59442;SDS011;45247;47.466;19.004;2023-10-09T15:35:47;14.95;;;6.10;;
59442;SDS011;45247;47.466;19.004;2023-10-09T15:38:16;16.52;;;6.35;;
59442;SDS011;45247;47.466;19.004;2023-10-09T15:40:46;15.45;;;6.03;;
59442;SDS011;45247;47.466;19.004;2023-10-09T15:43:16;13.57;;;6.10;;